Terminal Aerodrome Forecast
Issued by NWS Wichita, KS

Home | Current Version | Previous Version | Graphics & Text | Print | Product List | Glossary On
Versions: 1 2 3 4 5 6 7 8 9 10 11 12 13 14 15 16 17 18 19 20 21 22 23 24 25 26
000
FTUS43 KICT 240520
TAFICT
TAF
KICT 240520Z 2406/2506 VRB05KT P6SM -RA OVC010
      TEMPO 2408/2412 4SM -SHRA BR OVC007
     FM241500 15009KT 6SM BR VCSH OVC015
     FM241800 16012KT P6SM VCTS SCT020 OVC035CB=

USA.gov is the U.S. government's official web portal to all federal, state and local government web resources and services.